TimeEDT,TemperatureF,Dew PointF,Humidity,Sea Level PressureIn,VisibilityMPH,Wind Direction,Wind SpeedMPH,Gust SpeedMPH,PrecipitationIn,Events,Conditions,WindDirDegrees,DateUTC
12:51 AM,53.1,52.0,96,30.16,5.0,Calm,Calm,-,N/A,,Overcast,0,2013-10-31 04:51:00
1:51 AM,54.0,53.1,97,30.16,8.0,Calm,Calm,-,N/A,,Overcast,0,2013-10-31 05:51:00
2:51 AM,53.1,52.0,96,30.14,8.0,Calm,Calm,-,N/A,,Mostly Cloudy,0,2013-10-31 06:51:00
3:11 AM,53.6,51.8,94,30.13,2.5,Calm,Calm,-,N/A,,Mostly Cloudy,0,2013-10-31 07:11:00
3:20 AM,51.8,51.8,100,30.13,4.0,Calm,Calm,-,N/A,,Mostly Cloudy,0,2013-10-31 07:20:00
3:51 AM,53.1,52.0,96,30.14,5.0,Calm,Calm,-,N/A,,Overcast,0,2013-10-31 07:51:00
4:51 AM,54.0,52.0,93,30.10,9.0,Calm,Calm,-,N/A,,Overcast,0,2013-10-31 08:51:00
5:51 AM,54.0,53.1,97,30.12,9.0,Calm,Calm,-,N/A,,Overcast,0,2013-10-31 09:51:00
6:51 AM,54.0,52.0,93,30.10,10.0,Calm,Calm,-,N/A,,Overcast,0,2013-10-31 10:51:00
7:51 AM,52.0,51.1,97,30.11,4.0,Calm,Calm,-,N/A,,Scattered Clouds,0,2013-10-31 11:51:00
8:51 AM,53.1,52.0,96,30.11,6.0,Calm,Calm,-,N/A,,Mostly Cloudy,0,2013-10-31 12:51:00
9:51 AM,55.0,53.1,93,30.10,9.0,Calm,Calm,-,N/A,,Mostly Cloudy,0,2013-10-31 13:51:00
10:51 AM,60.1,55.9,86,30.04,10.0,Calm,Calm,-,N/A,,Overcast,0,2013-10-31 14:51:00
11:51 AM,62.1,55.9,80,30.01,10.0,Calm,Calm,-,N/A,,Scattered Clouds,0,2013-10-31 15:51:00
12:51 PM,66.9,53.1,61,29.97,10.0,Variable,6.9,-,N/A,,Scattered Clouds,0,2013-10-31 16:51:00
1:51 PM,66.9,50.0,54,29.93,10.0,SSW,8.1,-,N/A,,Scattered Clouds,200,2013-10-31 17:51:00
2:51 PM,66.9,48.9,52,29.89,10.0,SSW,9.2,-,N/A,,Clear,210,2013-10-31 18:51:00
3:51 PM,68.0,48.9,50,29.88,10.0,South,10.4,23.0,N/A,,Mostly Cloudy,190,2013-10-31 19:51:00
4:51 PM,62.1,50.0,65,29.92,10.0,SSW,4.6,-,0.01,Rain,Light Rain,210,2013-10-31 20:51:00
5:51 PM,57.0,55.0,93,29.91,6.0,Calm,Calm,-,0.05,Rain,Light Rain,0,2013-10-31 21:51:00
6:51 PM,55.0,54.0,96,29.86,9.0,SE,3.5,-,0.00,,Overcast,140,2013-10-31 22:51:00
7:51 PM,57.9,52.0,81,29.84,10.0,South,3.5,-,N/A,,Overcast,180,2013-10-31 23:51:00
8:51 PM,59.0,51.1,75,29.81,10.0,South,6.9,-,0.00,Rain,Light Rain,170,2013-11-01 00:51:00
9:51 PM,59.0,52.0,78,29.77,10.0,SSE,8.1,-,0.00,Rain,Light Rain,150,2013-11-01 01:51:00
10:51 PM,63.0,51.1,65,29.70,10.0,South,11.5,18.4,0.01,,Overcast,170,2013-11-01 02:51:00
11:51 PM,64.0,52.0,65,29.65,10.0,SSE,12.7,-,0.00,Rain,Light Rain,150,2013-11-01 03:51:00